Time;durP1;ratioP1;P1;durP2;ratioP2;P2;SDS_P1;SDS_P2;PMS_P1;PMS_P2;Temp;Humidity;BMP_temperature;BMP_pressure;BME280_temperature;BME280_humidity;BME280_pressure;Samples;Min_cycle;Max_cycle;Signal;HPM_P1;HPM_P2
2020/12/19 00:00:25;;;;;;;10.47;6.67;;;10.70;74.60;;;;;;4998926;28;20054;-66
2020/12/19 00:02:51;;;;;;;9.45;6.38;;;10.70;74.00;;;;;;5004798;28;20034;-67
2020/12/19 00:05:17;;;;;;;10.47;6.73;;;10.60;74.20;;;;;;5001991;28;20087;-69
2020/12/19 00:08:03;;;;;;;13.43;7.80;;;10.60;74.70;;;;;;5004926;28;20045;-67
2020/12/19 00:10:48;;;;;;;12.20;7.40;;;10.60;74.20;;;;;;5003501;28;20050;-67
2020/12/19 00:13:34;;;;;;;12.07;7.73;;;10.60;74.30;;;;;;5018705;28;20049;-66
2020/12/19 00:16:00;;;;;;;12.10;7.27;;;10.60;74.80;;;;;;5001022;28;20401;-68
2020/12/19 00:18:46;;;;;;;13.47;8.20;;;10.60;74.10;;;;;;5003186;28;20046;-68
2020/12/19 00:21:12;;;;;;;14.70;8.27;;;10.60;74.10;;;;;;5005375;28;20045;-65
2020/12/19 00:23:38;;;;;;;11.10;7.87;;;10.60;74.00;;;;;;5003483;28;20133;-66
2020/12/19 00:26:04;;;;;;;12.03;8.10;;;10.50;74.40;;;;;;5002412;28;20044;-65
2020/12/19 00:28:30;;;;;;;16.07;8.73;;;10.50;75.00;;;;;;5000908;28;20454;-67
2020/12/19 00:30:55;;;;;;;12.40;7.90;;;10.60;74.80;;;;;;5002180;28;20039;-67
2020/12/19 00:33:21;;;;;;;12.20;7.77;;;10.60;74.30;;;;;;5005491;28;20037;-67
2020/12/19 00:35:47;;;;;;;8.70;7.00;;;10.50;74.50;;;;;;5004479;28;20071;-67
2020/12/19 00:38:33;;;;;;;14.50;8.20;;;10.50;74.90;;;;;;5003236;28;20049;-67
2020/12/19 00:40:58;;;;;;;11.90;8.10;;;10.40;74.60;;;;;;5004386;28;20033;-67
2020/12/19 00:43:25;;;;;;;10.10;7.03;;;10.50;75.00;;;;;;5002271;28;20123;-67
2020/12/19 00:46:15;;;;;;;11.30;7.93;;;10.50;74.20;;;;;;5007124;28;20501;-67
2020/12/19 00:49:00;;;;;;;9.80;7.60;;;10.60;74.40;;;;;;5020537;28;20061;-67
2020/12/19 00:51:46;;;;;;;10.57;7.77;;;10.50;74.50;;;;;;5006136;28;20046;-67
2020/12/19 00:54:12;;;;;;;11.33;8.20;;;10.30;75.00;;;;;;5008355;28;20099;-67
2020/12/19 00:56:38;;;;;;;10.75;8.00;;;10.30;74.80;;;;;;5023999;28;20037;-68
2020/12/19 00:59:03;;;;;;;11.57;8.13;;;10.20;75.20;;;;;;5010270;28;20141;-67
2020/12/19 01:01:29;;;;;;;12.83;8.53;;;10.20;75.40;;;;;;5006644;28;20042;-67
2020/12/19 01:04:15;;;;;;;9.27;7.63;;;10.20;75.60;;;;;;5007046;28;20132;-67
2020/12/19 01:06:41;;;;;;;12.60;8.50;;;10.20;75.60;;;;;;5008312;28;20156;-67
2020/12/19 01:09:07;;;;;;;12.27;8.07;;;10.20;75.20;;;;;;5008225;28;20449;-67
2020/12/19 01:11:34;;;;;;;15.77;8.83;;;10.20;75.60;;;;;;5010098;28;20424;-65
2020/12/19 01:14:20;;;;;;;13.50;8.27;;;10.30;75.50;;;;;;5010977;28;20054;-65
2020/12/19 01:16:46;;;;;;;11.67;8.47;;;10.30;75.40;;;;;;5011306;28;20053;-65
2020/12/19 01:19:12;;;;;;;11.77;8.33;;;10.20;75.50;;;;;;5012675;28;20033;-65
2020/12/19 01:21:38;;;;;;;11.17;8.23;;;10.10;75.30;;;;;;5012491;28;20136;-65
2020/12/19 01:24:03;;;;;;;11.73;8.47;;;10.10;76.10;;;;;;5009560;28;20037;-65
2020/12/19 01:26:29;;;;;;;13.07;8.90;;;10.00;75.90;;;;;;5006010;28;20063;-65
2020/12/19 01:28:55;;;;;;;11.33;8.90;;;9.90;76.20;;;;;;5010406;28;20072;-65
2020/12/19 01:31:21;;;;;;;10.13;8.77;;;10.00;76.40;;;;;;5012911;28;20040;-65
2020/12/19 01:34:07;;;;;;;12.17;8.37;;;9.90;76.60;;;;;;4997535;28;20073;-65
2020/12/19 01:36:33;;;;;;;12.47;8.37;;;10.00;76.30;;;;;;5012925;28;20038;-65
2020/12/19 01:39:19;;;;;;;13.83;9.60;;;10.00;76.40;;;;;;5004553;28;20403;-65
2020/12/19 01:41:44;;;;;;;11.87;9.20;;;10.00;76.20;;;;;;5008199;28;20038;-65
2020/12/19 01:44:30;;;;;;;11.47;9.63;;;10.00;76.20;;;;;;5000798;28;20042;-65
2020/12/19 01:47:02;;;;;;;14.47;10.03;;;10.00;76.40;;;;;;5004513;28;20054;-65
2020/12/19 01:49:29;;;;;;;13.93;10.23;;;10.00;76.30;;;;;;5009075;28;20078;-66
2020/12/19 01:52:00;;;;;;;13.50;9.93;;;10.00;76.50;;;;;;5020864;28;20069;-67
2020/12/19 01:54:26;;;;;;;12.30;9.27;;;10.00;76.80;;;;;;5001305;28;20042;-67
2020/12/19 01:56:53;;;;;;;13.23;9.90;;;10.00;76.80;;;;;;5004225;28;20512;-67
2020/12/19 01:59:19;;;;;;;15.17;10.37;;;10.00;76.70;;;;;;5003084;28;20035;-67
2020/12/19 02:02:08;;;;;;;15.27;11.23;;;10.00;76.70;;;;;;5005290;28;20046;-65
2020/12/19 02:04:35;;;;;;;18.40;13.80;;;9.90;77.00;;;;;;5007976;28;20126;-67
2020/12/19 02:07:21;;;;;;;17.33;10.67;;;9.90;77.20;;;;;;4999919;28;20042;-67
2020/12/19 02:10:07;;;;;;;15.93;9.60;;;10.00;77.20;;;;;;4992801;28;20046;-67
2020/12/19 02:12:53;;;;;;;16.20;9.87;;;9.90;77.00;;;;;;5005505;28;20139;-67
2020/12/19 02:15:18;;;;;;;12.97;10.47;;;9.80;77.60;;;;;;5003785;28;20138;-67
2020/12/19 02:17:44;;;;;;;14.33;10.23;;;9.80;77.60;;;;;;5000689;28;20112;-67
2020/12/19 02:20:30;;;;;;;15.33;11.20;;;9.80;77.40;;;;;;5002301;28;20046;-68
2020/12/19 02:22:56;;;;;;;14.40;10.97;;;9.80;77.60;;;;;;5004050;28;20030;-68
2020/12/19 02:25:42;;;;;;;14.73;10.87;;;9.90;77.80;;;;;;5001432;28;20364;-72
2020/12/19 02:28:27;;;;;;;15.60;11.03;;;9.80;77.30;;;;;;5000753;28;20478;-71
2020/12/19 02:30:53;;;;;;;14.87;10.60;;;9.70;77.80;;;;;;5020638;28;20045;-71
2020/12/19 02:33:19;;;;;;;13.73;10.70;;;9.80;77.70;;;;;;5001457;28;20746;-69
2020/12/19 02:35:44;;;;;;;15.57;10.70;;;9.80;77.60;;;;;;5005956;28;20428;-67
2020/12/19 02:38:10;;;;;;;12.67;10.00;;;9.80;77.80;;;;;;5003779;28;20486;-67
2020/12/19 02:40:36;;;;;;;16.57;11.30;;;9.70;78.00;;;;;;5004992;28;20056;-67
2020/12/19 02:43:02;;;;;;;14.37;10.57;;;9.70;78.20;;;;;;5003319;28;20045;-67
2020/12/19 02:45:27;;;;;;;14.50;11.00;;;9.60;78.20;;;;;;5003144;28;20438;-67
2020/12/19 02:47:53;;;;;;;11.30;10.10;;;9.80;78.50;;;;;;5003148;28;20505;-67
2020/12/19 02:50:19;;;;;;;16.03;11.67;;;9.60;78.30;;;;;;5003352;28;20060;-68
2020/12/19 02:53:04;;;;;;;15.27;11.03;;;9.60;78.00;;;;;;4990099;28;20216;-68
2020/12/19 02:55:30;;;;;;;15.47;11.13;;;9.50;78.20;;;;;;5005416;28;20124;-67
2020/12/19 02:57:56;;;;;;;14.23;11.03;;;9.60;78.30;;;;;;5006001;28;20056;-68
2020/12/19 03:00:21;;;;;;;16.00;11.57;;;9.60;78.50;;;;;;5006154;28;20704;-68
2020/12/19 03:03:07;;;;;;;12.90;10.73;;;9.60;78.10;;;;;;4988623;28;20042;-69
2020/12/19 03:05:33;;;;;;;15.30;10.43;;;9.60;78.50;;;;;;5004921;28;20717;-70
2020/12/19 03:07:58;;;;;;;13.83;10.47;;;9.60;77.70;;;;;;5005290;28;20048;-69
2020/12/19 03:10:24;;;;;;;14.40;11.17;;;9.60;77.10;;;;;;5004745;28;20050;-70
2020/12/19 03:12:50;;;;;;;17.80;11.30;;;9.50;78.30;;;;;;5004856;28;20038;-69
2020/12/19 03:15:16;;;;;;;15.87;10.90;;;9.50;78.60;;;;;;5004122;28;20038;-69
2020/12/19 03:17:41;;;;;;;14.23;10.57;;;9.60;77.80;;;;;;5002070;28;20046;-69
2020/12/19 03:20:07;;;;;;;14.07;10.77;;;9.60;78.10;;;;;;5002551;28;20371;-69
2020/12/19 03:22:33;;;;;;;15.43;10.43;;;9.60;78.20;;;;;;5004943;28;20050;-68
2020/12/19 03:24:59;;;;;;;14.10;10.53;;;9.60;78.00;;;;;;5000065;28;20053;-68
2020/12/19 03:27:45;;;;;;;14.83;11.07;;;9.70;77.90;;;;;;5002090;28;20041;-68
2020/12/19 03:30:30;;;;;;;16.77;10.63;;;9.90;77.40;;;;;;5002769;28;20398;-67
2020/12/19 03:32:56;;;;;;;15.27;10.30;;;9.80;77.80;;;;;;5003930;28;20100;-68
2020/12/19 03:35:22;;;;;;;16.83;12.10;;;9.70;77.70;;;;;;5002730;28;20049;-66
2020/12/19 03:37:48;;;;;;;15.50;11.47;;;9.60;77.80;;;;;;5017349;28;21759;-67
2020/12/19 03:40:34;;;;;;;14.87;10.40;;;9.60;78.30;;;;;;5002878;28;20061;-66
2020/12/19 03:43:00;;;;;;;13.40;10.20;;;9.60;78.20;;;;;;5002397;28;20180;-66
2020/12/19 03:45:25;;;;;;;16.87;11.27;;;9.60;78.50;;;;;;5004444;28;20501;-67
2020/12/19 03:47:51;;;;;;;17.53;11.83;;;9.50;78.30;;;;;;5001320;28;20089;-67
2020/12/19 03:50:17;;;;;;;16.20;11.37;;;9.60;79.00;;;;;;4999901;28;20049;-67
2020/12/19 03:53:02;;;;;;;16.10;11.23;;;9.60;78.70;;;;;;5002113;28;20047;-68
2020/12/19 03:55:28;;;;;;;18.33;11.40;;;9.50;79.40;;;;;;5002077;28;20064;-66
2020/12/19 03:57:54;;;;;;;16.27;11.90;;;9.50;78.90;;;;;;4999883;28;20045;-66
2020/12/19 04:00:20;;;;;;;16.90;11.30;;;9.50;79.50;;;;;;4999608;28;20057;-66
2020/12/19 04:02:46;;;;;;;15.00;11.07;;;9.50;79.50;;;;;;5016984;28;20477;-67
2020/12/19 04:05:11;;;;;;;14.97;11.53;;;9.50;79.00;;;;;;5001047;28;20046;-67
2020/12/19 04:07:38;;;;;;;14.20;11.73;;;9.50;80.00;;;;;;5003097;28;20053;-68
2020/12/19 04:10:04;;;;;;;17.40;12.00;;;9.50;79.60;;;;;;4997615;28;20046;-68
2020/12/19 04:12:30;;;;;;;16.83;12.30;;;9.60;79.30;;;;;;5000116;28;20778;-66
2020/12/19 04:14:56;;;;;;;17.50;12.33;;;9.70;79.10;;;;;;5000835;28;20038;-66
2020/12/19 04:17:21;;;;;;;16.30;12.27;;;9.70;78.80;;;;;;5002073;28;20065;-67
2020/12/19 04:19:47;;;;;;;16.27;12.43;;;9.70;78.90;;;;;;4999184;28;20042;-68
2020/12/19 04:22:13;;;;;;;14.83;11.93;;;9.70;79.20;;;;;;5002441;28;20122;-68
2020/12/19 04:24:59;;;;;;;14.57;11.20;;;9.90;80.00;;;;;;5000086;28;20056;-67
2020/12/19 04:27:45;;;;;;;14.20;12.23;;;10.00;79.00;;;;;;4988911;28;20042;-68
2020/12/19 04:30:10;;;;;;;13.97;11.27;;;10.00;77.70;;;;;;5007637;28;20044;-68
2020/12/19 04:32:36;;;;;;;13.60;11.93;;;10.00;78.20;;;;;;5007869;28;20038;-68
2020/12/19 04:35:03;;;;;;;15.50;11.47;;;9.90;78.30;;;;;;5004053;28;20149;-71
2020/12/19 04:37:29;;;;;;;16.63;12.50;;;9.80;78.40;;;;;;5004045;28;20049;-70
2020/12/19 04:39:54;;;;;;;17.20;12.67;;;9.90;78.50;;;;;;5003575;28;20053;-71
2020/12/19 04:42:20;;;;;;;19.93;12.13;;;9.70;79.20;;;;;;5020954;28;20041;-71
2020/12/19 04:44:46;;;;;;;16.07;11.80;;;9.70;79.30;;;;;;5006303;28;20466;-70
2020/12/19 04:47:32;;;;;;;17.33;12.73;;;9.80;79.10;;;;;;4993082;28;20183;-70
2020/12/19 04:49:59;;;;;;;14.33;11.47;;;9.80;79.20;;;;;;5003340;28;20133;-69
2020/12/19 04:52:25;;;;;;;18.80;13.40;;;9.70;79.00;;;;;;5006354;28;20049;-68
2020/12/19 04:54:51;;;;;;;15.60;12.83;;;9.70;79.00;;;;;;5004021;28;20034;-67
2020/12/19 04:57:37;;;;;;;14.43;11.60;;;9.70;79.60;;;;;;4990387;28;20073;-67
2020/12/19 05:00:22;;;;;;;16.37;11.93;;;9.70;79.40;;;;;;4990977;28;20057;-67
2020/12/19 05:02:48;;;;;;;15.50;11.57;;;9.70;79.30;;;;;;5004361;28;20042;-67
2020/12/19 05:05:35;;;;;;;18.33;12.73;;;9.60;79.40;;;;;;5003525;28;20107;-67
2020/12/19 05:08:01;;;;;;;19.20;11.80;;;9.70;79.60;;;;;;5003342;28;20037;-67
2020/12/19 05:10:27;;;;;;;15.27;12.33;;;9.70;79.20;;;;;;5005238;28;20048;-66
2020/12/19 05:12:56;;;;;;;15.97;11.70;;;9.80;79.30;;;;;;5006816;28;20073;-67
2020/12/19 05:15:22;;;;;;;16.20;11.17;;;9.80;79.30;;;;;;5004879;28;20066;-66
2020/12/19 05:18:08;;;;;;;14.80;11.83;;;9.80;79.50;;;;;;5003130;28;20545;-67
2020/12/19 05:20:33;;;;;;;12.97;10.73;;;9.90;79.10;;;;;;5003201;28;20133;-68
2020/12/19 05:22:59;;;;;;;18.03;11.63;;;9.80;79.30;;;;;;5006849;28;20057;-67
2020/12/19 05:25:45;;;;;;;13.80;11.00;;;9.70;79.30;;;;;;5005632;28;20076;-67
2020/12/19 05:28:11;;;;;;;14.83;10.80;;;9.80;79.30;;;;;;5006548;28;20034;-68
2020/12/19 05:30:58;;;;;;;13.17;10.93;;;9.80;79.20;;;;;;5003512;28;20061;-68
2020/12/19 05:33:23;;;;;;;15.77;11.20;;;9.70;79.00;;;;;;5005767;28;20089;-68
2020/12/19 05:35:49;;;;;;;16.27;11.67;;;9.70;79.70;;;;;;5000982;28;20043;-67
2020/12/19 05:38:15;;;;;;;16.27;11.87;;;9.80;79.30;;;;;;5005419;28;20042;-68
2020/12/19 05:40:40;;;;;;;18.27;12.43;;;9.80;79.00;;;;;;5005420;28;20567;-68
2020/12/19 05:43:06;;;;;;;19.53;12.53;;;9.70;78.90;;;;;;5004483;28;20069;-65
2020/12/19 05:45:32;;;;;;;18.23;12.37;;;9.70;79.40;;;;;;5004512;28;20034;-67
2020/12/19 05:47:58;;;;;;;15.63;11.60;;;9.70;79.40;;;;;;5003814;28;20037;-69
2020/12/19 05:50:23;;;;;;;20.10;11.73;;;9.70;79.20;;;;;;5004111;28;20054;-67
2020/12/19 05:52:49;;;;;;;17.63;12.03;;;9.60;79.60;;;;;;5005852;28;20046;-67
2020/12/19 05:55:16;;;;;;;16.53;11.13;;;9.60;79.40;;;;;;5004306;28;20053;-71
2020/12/19 05:57:42;;;;;;;17.10;12.03;;;9.60;79.70;;;;;;5005781;28;20432;-70
2020/12/19 06:00:09;;;;;;;15.03;10.93;;;9.60;80.20;;;;;;5004657;28;20082;-68
2020/12/19 06:02:35;;;;;;;16.83;11.83;;;9.60;79.50;;;;;;5004569;28;20452;-67
2020/12/19 06:05:03;;;;;;;13.63;11.03;;;9.60;79.60;;;;;;5003087;28;20037;-69
2020/12/19 06:07:49;;;;;;;18.77;11.67;;;9.60;80.30;;;;;;4992386;28;20050;-69
2020/12/19 06:10:17;;;;;;;14.67;11.80;;;9.60;79.70;;;;;;5002629;28;20046;-67
2020/12/19 06:13:18;;;;;;;15.70;11.90;;;9.60;79.70;;;;;;5005706;28;20065;-66
2020/12/19 06:15:55;;;;;;;15.20;12.30;;;9.60;79.70;;;;;;5025797;28;20489;-67
2020/12/19 06:18:48;;;;;;;15.93;11.83;;;9.60;80.30;;;;;;5007502;28;20116;-66
2020/12/19 06:21:14;;;;;;;18.67;11.87;;;9.60;79.50;;;;;;5004338;28;20102;-67
2020/12/19 06:23:40;;;;;;;16.20;12.07;;;9.50;79.90;;;;;;5000892;28;20038;-70
2020/12/19 06:26:10;;;;;;;17.37;12.07;;;9.60;80.10;;;;;;5018332;28;20406;-68
2020/12/19 06:28:39;;;;;;;17.40;11.80;;;9.60;79.90;;;;;;4999533;28;20033;-66
2020/12/19 06:31:05;;;;;;;16.63;11.80;;;9.60;79.80;;;;;;5003937;28;20061;-67
2020/12/19 06:33:33;;;;;;;15.80;12.40;;;9.50;79.90;;;;;;5004697;28;20034;-68
2020/12/19 06:36:23;;;;;;;15.97;11.83;;;9.50;80.10;;;;;;4989450;28;20038;-69
2020/12/19 06:39:10;;;;;;;17.33;11.70;;;9.60;80.00;;;;;;5001144;28;20042;-68
2020/12/19 06:41:48;;;;;;;16.77;12.37;;;9.50;79.90;;;;;;5002200;28;20044;-69
2020/12/19 06:44:23;;;;;;;16.17;12.37;;;9.60;79.80;;;;;;5020391;28;20038;-70
2020/12/19 06:46:49;;;;;;;16.97;12.27;;;9.50;79.80;;;;;;5004651;28;20045;-71
2020/12/19 06:49:24;;;;;;;17.30;12.70;;;9.50;79.90;;;;;;5003429;28;20058;-70
2020/12/19 06:52:10;;;;;;;19.97;12.70;;;9.60;80.10;;;;;;5002531;28;20434;-69
2020/12/19 06:54:42;;;;;;;21.50;12.63;;;9.50;80.00;;;;;;5003828;28;20161;-68
2020/12/19 06:57:24;;;;;;;15.67;12.13;;;9.50;79.90;;;;;;5004496;28;20037;-69
2020/12/19 07:00:17;;;;;;;16.03;12.27;;;9.50;80.00;;;;;;5002948;28;20037;-69
2020/12/19 07:03:00;;;;;;;16.02;12.63;;;9.50;80.40;;;;;;5002211;28;20045;-69
2020/12/19 07:05:27;;;;;;;18.50;12.20;;;9.50;80.50;;;;;;5001431;28;20539;-68
2020/12/19 07:07:53;;;;;;;16.87;12.77;;;9.50;80.20;;;;;;5003181;28;20042;-69
2020/12/19 07:10:38;;;;;;;19.53;12.87;;;9.50;80.10;;;;;;4987078;28;20053;-71
2020/12/19 07:13:04;;;;;;;16.47;13.10;;;9.50;79.90;;;;;;5000929;28;20524;-69
2020/12/19 07:15:51;;;;;;;16.70;11.83;;;9.50;79.90;;;;;;5001012;28;20454;-71
2020/12/19 07:18:33;;;;;;;17.43;12.63;;;9.50;80.20;;;;;;5002518;28;20053;-70
2020/12/19 07:21:08;;;;;;;15.77;11.70;;;9.50;80.00;;;;;;5002820;28;20066;-67
2020/12/19 07:23:38;;;;;;;17.13;12.27;;;9.40;79.90;;;;;;5001189;28;20041;-68
2020/12/19 07:26:24;;;;;;;19.33;11.87;;;9.60;80.50;;;;;;5003766;28;20064;-65
2020/12/19 07:28:50;;;;;;;16.67;12.37;;;9.60;79.70;;;;;;5002224;28;20422;-67
2020/12/19 07:31:16;;;;;;;17.13;12.27;;;9.60;79.50;;;;;;4999347;28;20038;-66
2020/12/19 07:34:01;;;;;;;21.73;12.57;;;9.70;79.10;;;;;;5002534;28;20839;-66
2020/12/19 07:36:27;;;;;;;14.97;11.73;;;9.70;79.40;;;;;;5000730;28;20042;-67
2020/12/19 07:38:59;;;;;;;18.10;11.60;;;9.70;79.20;;;;;;5000969;28;20045;-65
2020/12/19 07:41:25;;;;;;;18.83;12.80;;;9.60;79.50;;;;;;5001082;28;20406;-67
2020/12/19 07:43:50;;;;;;;14.53;11.43;;;9.60;79.50;;;;;;5003245;28;20030;-66
2020/12/19 07:46:16;;;;;;;21.50;12.33;;;9.60;79.50;;;;;;5004169;28;20057;-67
2020/12/19 07:49:02;;;;;;;15.87;11.70;;;9.60;79.20;;;;;;4989758;28;20057;-66
2020/12/19 07:51:27;;;;;;;17.73;12.80;;;9.60;79.40;;;;;;5005016;28;20454;-66
2020/12/19 07:54:13;;;;;;;18.97;12.00;;;9.60;79.00;;;;;;5004041;28;20049;-68
2020/12/19 07:56:39;;;;;;;14.73;10.80;;;9.60;79.60;;;;;;5001981;28;20046;-67
2020/12/19 07:59:04;;;;;;;15.60;10.87;;;9.70;79.00;;;;;;5002014;28;20042;-66
2020/12/19 08:01:30;;;;;;;14.10;10.53;;;9.70;79.20;;;;;;5000503;28;20216;-67
2020/12/19 08:03:59;;;;;;;15.37;11.30;;;9.80;79.20;;;;;;5002560;28;20066;-69
2020/12/19 08:06:39;;;;;;;14.03;11.87;;;;;;;;;;4997911;28;20520;-68
2020/12/19 08:09:05;;;;;;;16.30;11.60;;;9.80;79.30;;;;;;4999872;28;20091;-68
2020/12/19 08:11:30;;;;;;;15.07;11.40;;;9.70;78.50;;;;;;5003521;28;20474;-68
2020/12/19 08:13:56;;;;;;;16.43;11.53;;;9.80;78.70;;;;;;5000727;28;20049;-68
2020/12/19 08:16:22;;;;;;;16.37;11.87;;;9.70;78.90;;;;;;4998833;28;20057;-69
2020/12/19 08:18:47;;;;;;;14.77;11.40;;;9.70;78.70;;;;;;5001434;28;20026;-65
2020/12/19 08:21:13;;;;;;;15.43;12.40;;;9.70;79.00;;;;;;5003035;28;20045;-67
2020/12/19 08:23:39;;;;;;;16.33;11.60;;;9.70;78.80;;;;;;5001699;28;20161;-69
2020/12/19 08:26:04;;;;;;;21.30;12.27;;;9.70;78.70;;;;;;5003705;28;20038;-68
2020/12/19 08:28:31;;;;;;;13.87;10.90;;;9.80;78.30;;;;;;5000715;28;20033;-64
2020/12/19 08:30:57;;;;;;;16.40;10.50;;;9.90;77.50;;;;;;5000156;28;20136;-66
2020/12/19 08:33:23;;;;;;;15.53;11.90;;;9.80;77.80;;;;;;4999917;28;20117;-66
2020/12/19 08:36:12;;;;;;;15.30;10.90;;;9.80;77.90;;;;;;4971463;28;20033;-66
2020/12/19 08:38:38;;;;;;;15.63;11.10;;;9.70;78.10;;;;;;4999316;28;20037;-66
2020/12/19 08:41:04;;;;;;;15.80;10.80;;;9.70;78.20;;;;;;4999350;28;20056;-66
2020/12/19 08:43:49;;;;;;;16.40;11.77;;;9.80;78.70;;;;;;5000656;28;20073;-66
2020/12/19 08:46:15;;;;;;;16.27;10.60;;;9.80;77.90;;;;;;4999866;28;20224;-66
2020/12/19 08:48:41;;;;;;;14.33;10.70;;;9.90;77.70;;;;;;5003245;28;20057;-65
2020/12/19 08:51:11;;;;;;;14.57;10.27;;;9.90;77.50;;;;;;5000715;28;20434;-64
2020/12/19 08:53:37;;;;;;;13.90;10.53;;;10.00;77.70;;;;;;4997985;28;20379;-65
2020/12/19 08:56:25;;;;;;;13.93;10.17;;;10.20;77.30;;;;;;4998969;28;20046;-64
2020/12/19 08:58:57;;;;;;;12.93;11.00;;;10.10;76.30;;;;;;4998652;28;20529;-66
2020/12/19 09:01:42;;;;;;;15.00;10.57;;;10.20;76.10;;;;;;4997849;28;20189;-65
2020/12/19 09:04:13;;;;;;;16.13;11.00;;;10.20;76.30;;;;;;4999996;28;20041;-64
